createdAt,value
2022-11-29T00:01:23.951Z,18.83
2022-11-29T00:03:51.230Z,18.35
2022-11-29T00:06:19.671Z,16.27
2022-11-29T00:08:46.870Z,18.20
2022-11-29T00:11:35.246Z,15.25
2022-11-29T00:14:02.598Z,15.60
2022-11-29T00:16:29.717Z,14.13
2022-11-29T00:18:56.592Z,16.15
2022-11-29T00:21:23.407Z,16.75
2022-11-29T00:23:50.230Z,16.15
2022-11-29T00:26:17.374Z,16.73
2022-11-29T00:28:44.372Z,17.63
2022-11-29T00:31:15.443Z,16.30
2022-11-29T00:33:42.505Z,15.20
2022-11-29T00:36:09.911Z,15.23
2022-11-29T00:38:37.021Z,15.88
2022-11-29T00:41:03.924Z,15.73
2022-11-29T00:43:30.852Z,15.05
2022-11-29T00:45:57.716Z,15.60
2022-11-29T00:48:24.799Z,16.70
2022-11-29T00:50:52.041Z,17.65
2022-11-29T00:53:19.018Z,17.08
2022-11-29T00:55:48.000Z,15.65
2022-11-29T00:58:15.013Z,14.82
2022-11-29T01:00:42.097Z,17.02
2022-11-29T01:03:09.277Z,17.58
2022-11-29T01:05:36.131Z,17.15
2022-11-29T01:08:03.052Z,17.25
2022-11-29T01:10:29.968Z,16.83
2022-11-29T01:12:56.875Z,15.93
2022-11-29T01:15:23.944Z,17.63
2022-11-29T01:17:51.160Z,17.95
2022-11-29T01:20:18.114Z,17.77
2022-11-29T01:22:45.619Z,18.65
2022-11-29T01:25:13.237Z,18.35
2022-11-29T01:27:40.756Z,18.63
2022-11-29T01:30:08.431Z,18.35
2022-11-29T01:32:35.701Z,18.40
2022-11-29T01:35:02.941Z,18.30
2022-11-29T01:37:31.254Z,17.48
2022-11-29T01:39:58.246Z,15.85
2022-11-29T01:42:25.216Z,18.42
2022-11-29T01:45:00.384Z,17.10
2022-11-29T01:47:27.449Z,16.42
2022-11-29T01:49:54.596Z,18.33
2022-11-29T01:52:24.220Z,18.15
2022-11-29T01:54:52.606Z,17.83
2022-11-29T01:57:20.496Z,19.65
2022-11-29T01:59:49.722Z,17.42
2022-11-29T02:02:26.858Z,18.38
2022-11-29T02:04:58.375Z,18.25
2022-11-29T02:07:25.902Z,18.35
2022-11-29T02:09:52.976Z,17.30
2022-11-29T02:12:25.963Z,18.20
2022-11-29T02:14:55.609Z,17.52
2022-11-29T02:17:22.752Z,18.50
2022-11-29T02:20:28.536Z,17.08
2022-11-29T02:23:14.430Z,19.20
2022-11-29T02:25:59.521Z,18.75
2022-11-29T02:28:26.574Z,19.05
2022-11-29T02:31:11.837Z,20.25
2022-11-29T02:33:44.656Z,19.63
2022-11-29T02:36:15.375Z,18.83
2022-11-29T02:38:56.770Z,20.85
2022-11-29T02:41:49.828Z,21.42
2022-11-29T02:44:40.088Z,19.67
2022-11-29T02:47:22.250Z,21.00
2022-11-29T02:50:10.197Z,21.73
2022-11-29T02:52:39.808Z,21.20
2022-11-29T02:55:06.808Z,21.30
2022-11-29T02:57:38.620Z,21.92
2022-11-29T03:00:11.050Z,20.85
2022-11-29T03:02:45.829Z,22.75
2022-11-29T03:05:31.388Z,21.33
2022-11-29T03:07:58.716Z,23.27
2022-11-29T03:10:31.874Z,21.73
2022-11-29T03:12:59.154Z,23.13
2022-11-29T03:15:31.480Z,25.40
2022-11-29T03:18:10.851Z,22.33
2022-11-29T03:20:56.574Z,23.50
2022-11-29T03:23:23.936Z,23.67
2022-11-29T03:26:00.169Z,22.45
2022-11-29T03:28:33.104Z,23.60
2022-11-29T03:31:04.544Z,21.77
2022-11-29T03:33:54.199Z,20.77
2022-11-29T03:36:36.471Z,22.88
2022-11-29T03:39:05.974Z,22.08
2022-11-29T03:42:11.572Z,21.00
2022-11-29T03:44:55.626Z,21.73
2022-11-29T03:47:26.650Z,22.23
2022-11-29T03:49:53.572Z,22.92
2022-11-29T03:52:20.462Z,21.45
2022-11-29T03:54:53.460Z,22.92
2022-11-29T03:57:24.000Z,21.38
2022-11-29T04:00:13.608Z,21.20
2022-11-29T04:02:59.060Z,22.98
2022-11-29T04:05:35.894Z,22.13
2022-11-29T04:08:21.143Z,22.42
2022-11-29T04:11:06.888Z,23.35
2022-11-29T04:13:39.618Z,21.95
2022-11-29T04:16:07.681Z,24.25
2022-11-29T04:18:37.409Z,23.95
2022-11-29T04:21:22.929Z,24.48
2022-11-29T04:24:00.180Z,24.98
2022-11-29T04:26:34.618Z,22.25
2022-11-29T04:29:22.256Z,22.83
2022-11-29T04:31:52.278Z,22.85
2022-11-29T04:34:37.855Z,20.52
2022-11-29T04:37:34.308Z,20.20
2022-11-29T04:40:07.082Z,20.90
2022-11-29T04:42:42.769Z,20.98
2022-11-29T04:45:12.598Z,21.02
2022-11-29T04:47:39.493Z,21.80
2022-11-29T04:50:41.986Z,20.90
2022-11-29T04:53:27.295Z,21.58
2022-11-29T04:56:13.454Z,25.15
2022-11-29T04:59:15.706Z,19.67
2022-11-29T05:02:00.195Z,21.55
2022-11-29T05:04:33.756Z,21.45
2022-11-29T05:07:08.271Z,20.95
2022-11-29T05:10:01.315Z,21.58
2022-11-29T05:12:32.071Z,20.90
2022-11-29T05:15:04.552Z,19.98
2022-11-29T05:17:37.223Z,19.67
2022-11-29T05:20:22.357Z,20.45
2022-11-29T05:23:07.505Z,21.50
2022-11-29T05:25:45.113Z,19.92
2022-11-29T05:28:40.806Z,20.02
2022-11-29T05:31:07.658Z,21.55
2022-11-29T05:33:40.601Z,20.85
2022-11-29T05:36:07.428Z,22.23
2022-11-29T05:38:49.328Z,21.60
2022-11-29T05:41:22.120Z,23.08
2022-11-29T05:43:48.968Z,22.73
2022-11-29T05:46:22.064Z,23.02
2022-11-29T05:49:01.214Z,22.35
2022-11-29T05:51:28.044Z,22.85
2022-11-29T05:53:54.842Z,23.48
2022-11-29T05:56:30.384Z,21.42
2022-11-29T05:58:59.979Z,22.27
2022-11-29T06:01:53.569Z,22.83
2022-11-29T06:04:23.425Z,22.25
2022-11-29T06:06:58.097Z,23.15
2022-11-29T06:09:27.621Z,23.45
2022-11-29T06:12:02.619Z,22.38
2022-11-29T06:14:32.324Z,22.17
2022-11-29T06:17:05.969Z,22.45
2022-11-29T06:19:44.748Z,25.25
2022-11-29T06:22:21.015Z,22.95
2022-11-29T06:24:53.567Z,23.77
2022-11-29T06:27:29.667Z,23.63
2022-11-29T06:29:56.449Z,22.92
2022-11-29T06:32:43.275Z,22.90
2022-11-29T06:35:30.257Z,23.00
2022-11-29T06:37:58.565Z,26.55
2022-11-29T06:40:25.607Z,26.10
2022-11-29T06:42:52.435Z,26.55
2022-11-29T06:45:19.391Z,28.13
2022-11-29T06:47:47.323Z,27.08
2022-11-29T06:50:29.367Z,25.52
2022-11-29T06:53:08.778Z,26.58
2022-11-29T06:55:51.089Z,25.38
2022-11-29T06:58:39.895Z,25.80
2022-11-29T07:01:25.362Z,27.20
2022-11-29T07:03:58.224Z,27.63
2022-11-29T07:06:27.305Z,28.83
2022-11-29T07:08:56.700Z,28.92
2022-11-29T07:11:23.701Z,29.50
2022-11-29T07:13:50.804Z,28.77
2022-11-29T07:16:22.058Z,29.58
2022-11-29T07:19:12.716Z,29.88
2022-11-29T07:21:58.399Z,29.25
2022-11-29T07:24:31.005Z,28.40
2022-11-29T07:27:02.628Z,27.15
2022-11-29T07:29:29.459Z,27.38
2022-11-29T07:32:15.024Z,27.92
2022-11-29T07:34:48.767Z,26.45
2022-11-29T07:37:30.687Z,26.40
2022-11-29T07:40:16.255Z,26.40
2022-11-29T07:42:43.032Z,27.60
2022-11-29T07:45:39.235Z,27.67
2022-11-29T07:48:07.053Z,28.15
2022-11-29T07:50:35.449Z,28.45
2022-11-29T07:53:02.542Z,28.88
2022-11-29T07:55:29.897Z,26.33
2022-11-29T07:57:56.769Z,24.52
2022-11-29T08:00:23.782Z,24.95
2022-11-29T08:02:51.205Z,26.23
2022-11-29T08:05:18.127Z,24.60
2022-11-29T08:07:44.979Z,24.98
2022-11-29T08:10:15.415Z,24.75
2022-11-29T08:12:45.992Z,25.08
2022-11-29T08:15:13.444Z,24.88
2022-11-29T08:17:40.428Z,24.42
2022-11-29T08:20:07.654Z,26.38
2022-11-29T08:22:35.008Z,26.20
2022-11-29T08:25:02.186Z,24.42
2022-11-29T08:27:30.914Z,26.10
2022-11-29T08:29:57.840Z,23.33
2022-11-29T08:32:25.277Z,24.98
2022-11-29T08:34:52.388Z,23.17
2022-11-29T08:37:19.188Z,24.08
2022-11-29T08:39:46.075Z,23.67
2022-11-29T08:42:12.857Z,24.75
2022-11-29T08:44:39.769Z,27.05
2022-11-29T08:47:24.841Z,26.45
2022-11-29T08:50:04.034Z,27.33
2022-11-29T08:52:52.766Z,28.55
2022-11-29T08:55:20.252Z,29.00
2022-11-29T08:57:47.464Z,29.85
2022-11-29T09:00:14.782Z,30.67
2022-11-29T09:02:41.777Z,28.67
2022-11-29T09:05:09.491Z,29.52
2022-11-29T09:07:36.507Z,35.88
2022-11-29T09:10:06.042Z,30.08
2022-11-29T09:12:32.946Z,31.17
2022-11-29T09:14:59.841Z,31.40
2022-11-29T09:17:27.314Z,30.65
2022-11-29T09:19:54.104Z,29.80
2022-11-29T09:22:20.847Z,32.10
2022-11-29T09:24:47.871Z,31.73
2022-11-29T09:27:14.800Z,31.90
2022-11-29T09:29:41.586Z,31.77
2022-11-29T09:32:08.595Z,38.78
2022-11-29T09:34:35.363Z,32.42
2022-11-29T09:37:02.155Z,30.58
2022-11-29T09:39:28.933Z,31.17
2022-11-29T09:42:01.148Z,32.78
2022-11-29T09:44:33.976Z,32.35
2022-11-29T09:47:15.925Z,33.17
2022-11-29T09:49:52.449Z,34.15
2022-11-29T09:52:34.426Z,33.25
2022-11-29T09:55:29.513Z,34.30
2022-11-29T09:57:58.544Z,34.03
2022-11-29T10:00:26.207Z,38.03
2022-11-29T10:02:56.115Z,35.45
2022-11-29T10:05:45.203Z,36.53
2022-11-29T10:08:15.465Z,37.10
2022-11-29T10:10:49.644Z,39.58
2022-11-29T10:13:16.475Z,39.03
2022-11-29T10:15:47.389Z,37.80
2022-11-29T10:18:14.163Z,39.63
2022-11-29T10:20:48.654Z,41.40
2022-11-29T10:23:15.993Z,41.95
2022-11-29T10:25:45.577Z,39.88
2022-11-29T10:28:14.584Z,40.30
2022-11-29T10:30:42.651Z,39.90
2022-11-29T10:33:16.010Z,39.13
2022-11-29T10:35:42.934Z,38.22
2022-11-29T10:38:30.420Z,37.70
2022-11-29T10:40:59.313Z,37.42
2022-11-29T10:43:26.178Z,53.72
2022-11-29T10:45:56.369Z,37.00
2022-11-29T10:48:25.306Z,36.58
2022-11-29T10:50:52.875Z,37.03
2022-11-29T10:53:27.228Z,40.13
2022-11-29T10:55:54.001Z,35.28
2022-11-29T10:58:28.409Z,33.00
2022-11-29T11:01:08.807Z,31.85
2022-11-29T11:03:37.620Z,33.10
2022-11-29T11:06:08.553Z,31.35
2022-11-29T11:08:35.596Z,31.23
2022-11-29T11:11:03.390Z,31.60
2022-11-29T11:13:31.658Z,29.00
2022-11-29T11:16:07.191Z,28.80
2022-11-29T11:18:33.960Z,29.35
2022-11-29T11:21:04.795Z,29.15
2022-11-29T11:23:33.123Z,29.60
2022-11-29T11:26:04.381Z,29.73
2022-11-29T11:28:43.563Z,28.88
2022-11-29T11:31:11.742Z,28.08
2022-11-29T11:33:45.306Z,28.35
2022-11-29T11:36:14.901Z,28.85
2022-11-29T11:53:55.828Z,28.48
2022-11-29T11:56:23.812Z,28.33
2022-11-29T11:58:54.907Z,28.48
2022-11-29T12:01:27.331Z,29.50
2022-11-29T12:04:15.012Z,27.38
2022-11-29T12:06:54.380Z,29.98
2022-11-29T12:09:36.420Z,31.85
2022-11-29T12:12:11.152Z,30.30
2022-11-29T12:14:38.061Z,30.42
2022-11-29T12:17:20.211Z,30.73
2022-11-29T12:19:52.988Z,29.98
2022-11-29T12:22:23.088Z,30.10
2022-11-29T12:24:57.265Z,31.90
2022-11-29T12:27:24.107Z,31.50
2022-11-29T12:29:51.007Z,30.45
2022-11-29T12:32:17.849Z,29.83
2022-11-29T12:34:51.612Z,31.30
2022-11-29T12:37:24.332Z,32.60
2022-11-29T12:39:52.214Z,31.30
2022-11-29T12:42:37.672Z,32.15
2022-11-29T12:45:22.608Z,32.58
2022-11-29T12:48:02.483Z,31.83
2022-11-29T12:50:39.788Z,31.10
2022-11-29T12:53:26.839Z,32.13
2022-11-29T12:55:57.212Z,32.88
2022-11-29T12:58:30.952Z,32.13
2022-11-29T13:01:12.906Z,32.72
2022-11-29T13:03:42.940Z,34.03
2022-11-29T13:06:29.858Z,29.08
2022-11-29T13:09:02.641Z,31.90
2022-11-29T13:11:29.479Z,32.72
2022-11-29T13:14:41.539Z,29.98
2022-11-29T13:17:03.842Z,29.27
2022-11-29T13:19:43.297Z,31.73
2022-11-29T13:22:34.471Z,31.33
2022-11-29T13:27:38.436Z,34.00
2022-11-29T13:30:06.734Z,34.08
2022-11-29T13:32:57.110Z,34.65
2022-11-29T13:35:24.035Z,33.53
2022-11-29T13:38:17.140Z,34.83
2022-11-29T13:40:57.824Z,33.90
2022-11-29T13:43:37.755Z,31.05
2022-11-29T13:46:23.140Z,27.88
2022-11-29T13:48:51.997Z,28.70
2022-11-29T13:51:27.117Z,30.15
2022-11-29T13:53:55.229Z,29.02
2022-11-29T13:56:26.467Z,28.35
2022-11-29T13:58:54.644Z,29.38
2022-11-29T14:01:22.791Z,27.33
2022-11-29T14:04:19.081Z,28.17
2022-11-29T14:06:48.317Z,25.90
2022-11-29T14:09:26.752Z,26.73
2022-11-29T14:12:00.268Z,28.50
2022-11-29T14:14:41.398Z,27.83
2022-11-29T14:17:28.278Z,27.52
2022-11-29T14:20:15.049Z,25.27
2022-11-29T14:23:02.106Z,28.38
2022-11-29T14:28:16.867Z,28.27
2022-11-29T14:30:46.672Z,29.55
2022-11-29T14:33:13.829Z,28.67
2022-11-29T14:35:57.348Z,27.13
2022-11-29T14:38:30.995Z,27.10
2022-11-29T14:41:02.159Z,27.63
2022-11-29T14:43:32.134Z,30.02
2022-11-29T14:46:14.716Z,28.38
2022-11-29T14:48:56.650Z,29.40
2022-11-29T14:51:26.161Z,29.27
2022-11-29T14:54:15.087Z,27.90
2022-11-29T14:56:43.464Z,28.35
2022-11-29T14:59:28.863Z,29.10
2022-11-29T15:01:56.222Z,29.17
2022-11-29T15:04:26.122Z,29.85
2022-11-29T15:06:55.824Z,27.88
2022-11-29T15:09:24.014Z,27.48
2022-11-29T15:11:53.757Z,26.92
2022-11-29T15:14:25.350Z,26.85
2022-11-29T15:17:01.286Z,27.02
2022-11-29T15:19:40.245Z,25.85
2022-11-29T15:22:27.163Z,29.02
2022-11-29T15:24:55.832Z,28.65
2022-11-29T15:27:23.317Z,27.58
2022-11-29T15:29:50.618Z,29.75
2022-11-29T15:32:28.732Z,28.98
2022-11-29T15:34:56.545Z,24.98
2022-11-29T15:37:25.452Z,25.83
2022-11-29T15:40:10.894Z,27.10
2022-11-29T15:42:38.915Z,30.27
2022-11-29T15:45:24.257Z,28.70
2022-11-29T15:47:51.502Z,28.00
2022-11-29T15:50:31.245Z,27.80
2022-11-29T15:53:01.380Z,28.75
2022-11-29T15:55:31.804Z,29.73
2022-11-29T15:58:08.320Z,30.23
2022-11-29T16:00:36.077Z,29.00
2022-11-29T16:03:04.496Z,30.65
2022-11-29T16:05:33.752Z,33.00
2022-11-29T16:08:02.482Z,33.30
2022-11-29T16:10:35.487Z,31.65
2022-11-29T16:13:31.208Z,31.55
2022-11-29T16:16:10.643Z,33.42
2022-11-29T16:18:41.086Z,31.13
2022-11-29T16:23:35.048Z,30.15
2022-11-29T16:26:05.057Z,31.13
2022-11-29T16:28:34.119Z,29.27
2022-11-29T16:31:01.358Z,29.67
2022-11-29T16:33:28.437Z,30.40
2022-11-29T16:36:06.641Z,29.35
2022-11-29T16:38:33.792Z,30.88
2022-11-29T16:41:08.762Z,32.17
2022-11-29T16:43:47.743Z,31.13
2022-11-29T16:46:20.260Z,31.27
2022-11-29T16:48:48.213Z,32.28
2022-11-29T16:51:15.713Z,33.03
2022-11-29T16:53:47.969Z,34.97
2022-11-29T16:56:16.442Z,32.10
2022-11-29T16:59:25.730Z,30.80
2022-11-29T17:01:32.952Z,30.47
2022-11-29T17:04:00.688Z,29.52
2022-11-29T17:06:28.960Z,31.08
2022-11-29T17:08:58.098Z,30.13
2022-11-29T17:11:25.631Z,30.20
2022-11-29T17:13:53.441Z,30.58
2022-11-29T17:16:22.304Z,29.58
2022-11-29T17:18:49.614Z,31.20
2022-11-29T17:21:26.786Z,29.52
2022-11-29T17:23:54.774Z,31.13
2022-11-29T17:26:22.578Z,29.58
2022-11-29T17:28:50.921Z,30.80
2022-11-29T17:31:20.137Z,32.63
2022-11-29T17:33:47.296Z,31.90
2022-11-29T17:36:16.682Z,31.73
2022-11-29T17:38:44.758Z,32.10
2022-11-29T17:41:13.231Z,31.25
2022-11-29T17:43:40.764Z,32.72
2022-11-29T17:46:11.548Z,29.27
2022-11-29T17:48:39.104Z,31.98
2022-11-29T17:51:17.457Z,33.72
2022-11-29T17:53:54.761Z,32.60
2022-11-29T17:56:23.115Z,32.20
2022-11-29T17:58:54.390Z,34.00
2022-11-29T18:01:22.846Z,32.60
2022-11-29T18:03:52.723Z,33.72
2022-11-29T18:06:26.535Z,35.53
2022-11-29T18:08:54.686Z,36.75
2022-11-29T18:11:23.154Z,35.42
2022-11-29T18:13:50.920Z,33.70
2022-11-29T18:16:19.659Z,34.38
2022-11-29T18:18:47.127Z,35.30
2022-11-29T18:21:14.842Z,33.72
2022-11-29T18:23:43.344Z,33.25
2022-11-29T18:26:18.073Z,33.72
2022-11-29T18:28:45.408Z,32.05
2022-11-29T18:31:16.707Z,31.38
2022-11-29T18:33:44.588Z,31.23
2022-11-29T18:36:13.047Z,29.85
2022-11-29T18:38:41.011Z,29.23
2022-11-29T18:41:09.071Z,31.77
2022-11-29T18:43:40.107Z,27.88
2022-11-29T18:46:08.411Z,30.95
2022-11-29T18:48:35.932Z,30.90
2022-11-29T18:51:08.801Z,29.70
2022-11-29T18:53:35.855Z,28.85
2022-11-29T18:56:04.111Z,26.77
2022-11-29T18:58:31.148Z,27.88
2022-11-29T19:01:11.435Z,29.50
2022-11-29T19:03:39.445Z,31.27
2022-11-29T19:06:11.575Z,28.48
2022-11-29T19:08:39.879Z,29.85
2022-11-29T19:11:08.358Z,28.67
2022-11-29T19:13:36.470Z,31.45
2022-11-29T19:16:04.320Z,30.27
2022-11-29T19:18:31.241Z,30.75
2022-11-29T19:21:08.098Z,30.70
2022-11-29T19:23:34.912Z,29.65
2022-11-29T19:26:08.644Z,28.42
2022-11-29T19:28:37.242Z,29.25
2022-11-29T19:31:05.498Z,29.52
2022-11-29T19:33:37.344Z,31.60
2022-11-29T19:36:07.872Z,29.38
2022-11-29T19:41:07.669Z,29.85
2022-11-29T19:43:34.596Z,29.48
2022-11-29T19:46:22.892Z,29.05
2022-11-29T19:48:52.050Z,31.00
2022-11-29T19:51:19.104Z,30.83
2022-11-29T19:53:46.385Z,30.15
2022-11-29T19:56:14.688Z,28.02
2022-11-29T19:58:42.074Z,30.90
2022-11-29T20:01:10.641Z,31.17
2022-11-29T20:03:37.827Z,29.52
2022-11-29T20:06:06.229Z,29.45
2022-11-29T20:08:33.609Z,29.38
2022-11-29T20:11:10.803Z,32.92
2022-11-29T20:13:38.464Z,29.02
2022-11-29T20:16:08.935Z,32.40
2022-11-29T20:18:37.173Z,31.10
2022-11-29T20:21:08.702Z,31.58
2022-11-29T20:23:35.585Z,30.63
2022-11-29T20:26:02.560Z,30.77
2022-11-29T20:28:30.243Z,33.08
2022-11-29T20:30:57.426Z,32.90
2022-11-29T20:33:25.241Z,31.42
2022-11-29T20:35:58.393Z,34.53
2022-11-29T20:38:34.145Z,32.70
2022-11-29T20:41:07.725Z,31.65
2022-11-29T20:43:44.707Z,32.25
2022-11-29T20:46:11.816Z,32.63
2022-11-29T20:48:38.830Z,32.35
2022-11-29T20:51:06.087Z,32.50
2022-11-29T20:53:34.552Z,33.42
2022-11-29T20:56:01.845Z,33.45
2022-11-29T20:58:29.111Z,34.33
2022-11-29T21:00:56.313Z,33.80
2022-11-29T21:03:23.687Z,32.92
2022-11-29T21:05:50.984Z,35.30
2022-11-29T21:08:18.852Z,33.63
2022-11-29T21:10:45.772Z,36.42
2022-11-29T21:13:13.163Z,38.42
2022-11-29T21:15:40.501Z,40.53
2022-11-29T21:18:07.569Z,40.45
2022-11-29T21:20:34.605Z,38.55
2022-11-29T21:23:04.567Z,39.50
2022-11-29T21:25:48.353Z,36.65
2022-11-29T21:28:16.180Z,36.08
2022-11-29T21:30:43.398Z,34.47
2022-11-29T21:33:10.837Z,32.78
2022-11-29T21:35:42.257Z,33.22
2022-11-29T21:38:11.823Z,33.50
2022-11-29T21:40:38.710Z,32.60
2022-11-29T21:43:05.769Z,35.33
2022-11-29T21:45:32.584Z,31.00
2022-11-29T21:48:02.282Z,30.55
2022-11-29T21:50:29.172Z,31.63
2022-11-29T21:52:56.276Z,32.60
2022-11-29T21:55:23.106Z,32.28
2022-11-29T21:57:49.970Z,31.90
2022-11-29T22:00:17.142Z,30.00
2022-11-29T22:02:44.114Z,29.50
2022-11-29T22:05:11.255Z,30.40
2022-11-29T22:07:38.248Z,31.10
2022-11-29T22:10:11.606Z,31.17
2022-11-29T22:12:49.309Z,31.85
2022-11-29T22:15:24.263Z,31.23
2022-11-29T22:17:53.476Z,33.78
2022-11-29T22:20:20.503Z,32.08
2022-11-29T22:22:48.936Z,35.28
2022-11-29T22:25:16.323Z,35.53
2022-11-29T22:27:43.271Z,35.53
2022-11-29T22:30:10.509Z,36.90
2022-11-29T22:32:37.458Z,35.88
2022-11-29T22:35:04.580Z,35.40
2022-11-29T22:37:31.503Z,33.72
2022-11-29T22:39:58.332Z,37.05
2022-11-29T22:42:25.282Z,35.80
2022-11-29T22:44:52.300Z,36.72
2022-11-29T22:47:19.062Z,33.88
2022-11-29T22:49:45.912Z,36.22
2022-11-29T22:52:12.789Z,35.63
2022-11-29T22:54:39.631Z,34.53
2022-11-29T22:57:06.496Z,37.45
2022-11-29T22:59:33.334Z,38.00
2022-11-29T23:02:00.448Z,37.88
2022-11-29T23:04:27.327Z,37.00
2022-11-29T23:06:54.147Z,35.95
2022-11-29T23:09:22.531Z,35.22
2022-11-29T23:11:52.653Z,32.03
2022-11-29T23:14:19.813Z,33.17
2022-11-29T23:16:46.823Z,33.80
2022-11-29T23:19:16.342Z,32.08
2022-11-29T23:21:45.857Z,34.03
2022-11-29T23:24:13.419Z,33.08
2022-11-29T23:26:41.856Z,31.75
2022-11-29T23:29:10.329Z,35.13
2022-11-29T23:31:37.357Z,37.35
2022-11-29T23:34:04.431Z,38.10
2022-11-29T23:36:31.607Z,38.00
2022-11-29T23:38:58.568Z,37.85
2022-11-29T23:41:25.383Z,38.88
2022-11-29T23:43:52.213Z,37.30
2022-11-29T23:46:20.880Z,38.92
2022-11-29T23:48:48.381Z,39.35
2022-11-29T23:51:15.634Z,36.55
2022-11-29T23:53:42.670Z,38.03
2022-11-29T23:56:17.090Z,37.17
2022-11-29T23:58:44.333Z,37.72
